Mount Lemmon, AZ

8:06 PM MST on May 03, 2015 (GMT -0700)
Ryan | | Change Station
CLOSE
Current Station
Airport
Location: Tucson,
Elevation: 2418 ft
Nearby Weather Stations

Elev 2418 ft 32.14 °N, 111.17 °W | Updated 20 minutes ago

Overcast
Overcast
82 °F
Feels Like 82 °F
N
7
Wind Variable Wind from SW
Gusts mph

Today
High -- | Low -- °F
--% Chance of Precip.
Yesterday
High -- | Low -- °F
Precip. -- in
5:34 AM 7:05 PM
Full, 100% visible
Pressure 29.81 in
Visibility 10.0 miles
Clouds
Dew Point 34 °F
Humidity 17%
Rainfall 0.00 in
Snow Depth Not available.
UV Not available.
Pollen 6.60 out of 12
Air Quality Not available.
Flu Activity Local Activity
METAR KRYN 040246Z 23006KT 10SM 28/01 A2981

More Conditions Fewer Conditions

Pressure 29.81 in
Visibility 10.0 miles
Clouds
Dew Point 34 °F
Humidity 17%
Rainfall 0.00 in
Snow Depth Not available.
UV Not available.
Pollen 6.60 out of 12
Air Quality Not available.
Flu Activity Local Activity
METAR KRYN 040246Z 23006KT 10SM 28/01 A2981

More Conditions Fewer Conditions

Nepal has a long way to go to dig out and rebuild from a devastating earthquake. We have teamed up with several charities and organizations to make contributing to the relief effort as easy as possible.
How you can help: Portlight Strategies | Red Cross
Nowcast | as of 7:09 PM MST on May 3, 2015

Isolated showers will continue across portions of Southeast Arizona this evening. While very little rainfall is expected... wind gusts of 35 to 40 mph will be possible along with an occasional lightning strike as these showers and thunderstorms track towards the north at 15 to 20 mph.

×

10-Day Weather Forecast

Almanac

Astronomy

May. 03, 2015 Rise Set
Actual Time
Civil Twilight
Nautical Twilight
Astronomical Twilight
Moon
Length of Visible Light
Length of Day
Tomorrow will be .
, % of the Moon is Illuminated

Today's Extremes

State Highs State Lows

Community

WunderPhotos

Upload Photos

1,818,482 photos uploaded!

WunderBlogs® & News

Nearby

Air Quality

  Air Quality AQ Index Pollutant
Not available.

Snow Depth

Station Depth Elevation

Earthquake Activity

City Distance Mag. Time & Date
Minimum magnitude displayed is 2.5.

Coastal Water Temperatures

Place Temperature

Stations

Nearby Weather Stations

Station Location Temp. Windchill Dew Point Humidity Wind Precip. Elev Updated Type